sensor_id;sensor_type;location;lat;lon;timestamp;pressure;altitude;pressure_sealevel;temperature;humidity
53550;BME280;73079;52.914;-0.982;2024-02-21T00:00:51;101418.78;;;8.82;100.00
53550;BME280;73079;52.914;-0.982;2024-02-21T00:03:17;101422.41;;;8.99;100.00
53550;BME280;73079;52.914;-0.982;2024-02-21T00:05:43;101430.78;;;8.96;100.00
53550;BME280;73079;52.914;-0.982;2024-02-21T00:08:09;101424.47;;;9.05;100.00
53550;BME280;73079;52.914;-0.982;2024-02-21T00:10:35;101405.56;;;9.06;100.00
53550;BME280;73079;52.914;-0.982;2024-02-21T00:13:01;101392.41;;;9.21;100.00
53550;BME280;73079;52.914;-0.982;2024-02-21T00:15:28;101392.25;;;8.97;100.00
53550;BME280;73079;52.914;-0.982;2024-02-21T00:17:54;101396.25;;;8.92;100.00
53550;BME280;73079;52.914;-0.982;2024-02-21T00:20:20;101385.69;;;9.17;100.00
53550;BME280;73079;52.914;-0.982;2024-02-21T00:22:46;101378.47;;;9.18;100.00
53550;BME280;73079;52.914;-0.982;2024-02-21T00:25:12;101379.28;;;9.10;100.00
53550;BME280;73079;52.914;-0.982;2024-02-21T00:27:38;101386.66;;;9.08;100.00
53550;BME280;73079;52.914;-0.982;2024-02-21T00:30:05;101391.34;;;9.14;100.00
53550;BME280;73079;52.914;-0.982;2024-02-21T00:32:32;101386.97;;;9.13;100.00
53550;BME280;73079;52.914;-0.982;2024-02-21T00:34:59;101388.31;;;9.09;100.00
53550;BME280;73079;52.914;-0.982;2024-02-21T00:37:25;101384.13;;;9.06;100.00
53550;BME280;73079;52.914;-0.982;2024-02-21T00:39:51;101386.41;;;9.01;100.00
53550;BME280;73079;52.914;-0.982;2024-02-21T00:42:17;101373.19;;;9.00;100.00
53550;BME280;73079;52.914;-0.982;2024-02-21T00:44:43;101371.19;;;9.02;100.00
53550;BME280;73079;52.914;-0.982;2024-02-21T00:47:10;101382.53;;;8.96;100.00
53550;BME280;73079;52.914;-0.982;2024-02-21T00:49:37;101384.50;;;8.93;100.00
53550;BME280;73079;52.914;-0.982;2024-02-21T00:52:03;101380.22;;;9.01;100.00
53550;BME280;73079;52.914;-0.982;2024-02-21T00:54:28;101370.13;;;8.94;100.00
53550;BME280;73079;52.914;-0.982;2024-02-21T00:56:54;101363.41;;;8.90;100.00
53550;BME280;73079;52.914;-0.982;2024-02-21T00:59:20;101368.75;;;8.90;100.00
53550;BME280;73079;52.914;-0.982;2024-02-21T01:01:46;101369.44;;;8.92;100.00
53550;BME280;73079;52.914;-0.982;2024-02-21T01:04:12;101362.75;;;8.97;100.00
53550;BME280;73079;52.914;-0.982;2024-02-21T01:06:39;101354.56;;;8.98;100.00
53550;BME280;73079;52.914;-0.982;2024-02-21T01:09:08;101345.38;;;9.01;100.00
53550;BME280;73079;52.914;-0.982;2024-02-21T01:11:33;101336.25;;;8.93;100.00
53550;BME280;73079;52.914;-0.982;2024-02-21T01:13:59;101334.28;;;8.96;100.00
53550;BME280;73079;52.914;-0.982;2024-02-21T01:16:25;101331.78;;;8.94;100.00
53550;BME280;73079;52.914;-0.982;2024-02-21T01:18:51;101327.41;;;8.93;100.00
53550;BME280;73079;52.914;-0.982;2024-02-21T01:21:17;101322.88;;;8.93;100.00
53550;BME280;73079;52.914;-0.982;2024-02-21T01:23:44;101311.16;;;8.94;100.00
53550;BME280;73079;52.914;-0.982;2024-02-21T01:26:10;101292.03;;;8.89;100.00
53550;BME280;73079;52.914;-0.982;2024-02-21T01:28:40;101295.03;;;8.86;100.00
53550;BME280;73079;52.914;-0.982;2024-02-21T01:31:06;101288.88;;;8.94;100.00
53550;BME280;73079;52.914;-0.982;2024-02-21T01:33:31;101281.63;;;8.86;100.00
53550;BME280;73079;52.914;-0.982;2024-02-21T01:36:00;101281.31;;;8.89;100.00
53550;BME280;73079;52.914;-0.982;2024-02-21T01:38:26;101286.66;;;8.81;100.00
53550;BME280;73079;52.914;-0.982;2024-02-21T01:40:53;101283.31;;;8.87;100.00
53550;BME280;73079;52.914;-0.982;2024-02-21T01:43:20;101277.81;;;8.89;100.00
53550;BME280;73079;52.914;-0.982;2024-02-21T01:45:48;101263.22;;;8.91;100.00
53550;BME280;73079;52.914;-0.982;2024-02-21T01:48:15;101260.91;;;8.97;100.00
53550;BME280;73079;52.914;-0.982;2024-02-21T01:50:41;101252.00;;;8.88;100.00
53550;BME280;73079;52.914;-0.982;2024-02-21T01:53:08;101242.66;;;8.92;100.00
53550;BME280;73079;52.914;-0.982;2024-02-21T01:55:34;101235.41;;;8.84;100.00
53550;BME280;73079;52.914;-0.982;2024-02-21T01:58:01;101218.50;;;8.84;100.00
53550;BME280;73079;52.914;-0.982;2024-02-21T02:00:27;101207.25;;;8.80;100.00
53550;BME280;73079;52.914;-0.982;2024-02-21T02:02:54;101209.88;;;8.72;100.00
53550;BME280;73079;52.914;-0.982;2024-02-21T02:05:21;101191.66;;;8.75;100.00
53550;BME280;73079;52.914;-0.982;2024-02-21T02:07:47;101191.53;;;8.85;100.00
53550;BME280;73079;52.914;-0.982;2024-02-21T02:10:13;101194.22;;;8.85;100.00
53550;BME280;73079;52.914;-0.982;2024-02-21T02:12:39;101187.81;;;8.78;100.00
53550;BME280;73079;52.914;-0.982;2024-02-21T02:15:07;101188.53;;;8.88;100.00
53550;BME280;73079;52.914;-0.982;2024-02-21T02:17:32;101185.19;;;8.94;100.00
53550;BME280;73079;52.914;-0.982;2024-02-21T02:19:58;101184.38;;;8.94;100.00
53550;BME280;73079;52.914;-0.982;2024-02-21T02:22:28;101184.84;;;8.89;100.00
53550;BME280;73079;52.914;-0.982;2024-02-21T02:24:55;101178.50;;;8.99;100.00
53550;BME280;73079;52.914;-0.982;2024-02-21T02:27:21;101166.75;;;8.91;100.00
53550;BME280;73079;52.914;-0.982;2024-02-21T02:29:48;101181.09;;;8.74;100.00
53550;BME280;73079;52.914;-0.982;2024-02-21T02:32:14;101167.44;;;8.93;100.00
53550;BME280;73079;52.914;-0.982;2024-02-21T02:34:39;101159.38;;;8.85;100.00
53550;BME280;73079;52.914;-0.982;2024-02-21T02:37:05;101150.38;;;8.94;100.00
53550;BME280;73079;52.914;-0.982;2024-02-21T02:39:31;101150.69;;;8.91;100.00
53550;BME280;73079;52.914;-0.982;2024-02-21T02:41:58;101143.47;;;8.84;100.00
53550;BME280;73079;52.914;-0.982;2024-02-21T02:44:24;101139.13;;;8.91;100.00
53550;BME280;73079;52.914;-0.982;2024-02-21T02:46:50;101132.94;;;8.90;100.00
53550;BME280;73079;52.914;-0.982;2024-02-21T02:49:15;101123.53;;;8.78;100.00
53550;BME280;73079;52.914;-0.982;2024-02-21T02:51:41;101116.00;;;8.90;100.00
53550;BME280;73079;52.914;-0.982;2024-02-21T02:54:08;101117.84;;;8.89;100.00
53550;BME280;73079;52.914;-0.982;2024-02-21T02:56:34;101097.44;;;8.88;100.00
53550;BME280;73079;52.914;-0.982;2024-02-21T02:59:01;101092.41;;;8.85;100.00
53550;BME280;73079;52.914;-0.982;2024-02-21T03:01:26;101077.66;;;8.81;100.00
53550;BME280;73079;52.914;-0.982;2024-02-21T03:03:52;101068.13;;;8.87;100.00
53550;BME280;73079;52.914;-0.982;2024-02-21T03:06:18;101052.53;;;8.82;100.00
53550;BME280;73079;52.914;-0.982;2024-02-21T03:08:44;101053.03;;;8.78;100.00
53550;BME280;73079;52.914;-0.982;2024-02-21T03:11:09;101050.16;;;8.71;100.00
53550;BME280;73079;52.914;-0.982;2024-02-21T03:13:36;101043.78;;;8.72;100.00
53550;BME280;73079;52.914;-0.982;2024-02-21T03:16:04;101042.47;;;8.76;100.00
53550;BME280;73079;52.914;-0.982;2024-02-21T03:18:30;101045.78;;;8.70;100.00
53550;BME280;73079;52.914;-0.982;2024-02-21T03:20:56;101027.19;;;8.68;100.00
53550;BME280;73079;52.914;-0.982;2024-02-21T03:23:22;101017.00;;;8.72;100.00
53550;BME280;73079;52.914;-0.982;2024-02-21T03:25:48;101006.94;;;8.74;100.00
53550;BME280;73079;52.914;-0.982;2024-02-21T03:28:13;101003.75;;;8.70;100.00
53550;BME280;73079;52.914;-0.982;2024-02-21T03:30:39;101003.13;;;8.77;100.00
53550;BME280;73079;52.914;-0.982;2024-02-21T03:33:06;100996.06;;;8.75;100.00
53550;BME280;73079;52.914;-0.982;2024-02-21T03:35:32;100986.22;;;8.76;100.00
53550;BME280;73079;52.914;-0.982;2024-02-21T03:37:58;100987.88;;;8.77;100.00
53550;BME280;73079;52.914;-0.982;2024-02-21T03:40:23;100973.47;;;8.70;100.00
53550;BME280;73079;52.914;-0.982;2024-02-21T03:42:49;100973.50;;;8.78;100.00
53550;BME280;73079;52.914;-0.982;2024-02-21T03:45:15;100967.97;;;8.80;100.00
53550;BME280;73079;52.914;-0.982;2024-02-21T03:47:41;100959.59;;;8.74;100.00
53550;BME280;73079;52.914;-0.982;2024-02-21T03:50:09;100948.03;;;8.66;100.00
53550;BME280;73079;52.914;-0.982;2024-02-21T03:52:35;100942.66;;;8.74;100.00
53550;BME280;73079;52.914;-0.982;2024-02-21T03:55:01;100929.44;;;8.64;100.00
53550;BME280;73079;52.914;-0.982;2024-02-21T03:57:26;100918.53;;;8.74;100.00
53550;BME280;73079;52.914;-0.982;2024-02-21T03:59:52;100919.59;;;8.81;100.00
53550;BME280;73079;52.914;-0.982;2024-02-21T04:02:19;100916.88;;;8.73;100.00
53550;BME280;73079;52.914;-0.982;2024-02-21T04:04:46;100908.53;;;8.76;100.00
53550;BME280;73079;52.914;-0.982;2024-02-21T04:07:15;100906.84;;;8.83;100.00
53550;BME280;73079;52.914;-0.982;2024-02-21T04:09:40;100891.28;;;8.79;100.00
53550;BME280;73079;52.914;-0.982;2024-02-21T04:12:08;100891.75;;;8.74;100.00
53550;BME280;73079;52.914;-0.982;2024-02-21T04:14:34;100872.88;;;8.67;100.00
53550;BME280;73079;52.914;-0.982;2024-02-21T04:17:00;100869.84;;;8.79;100.00
53550;BME280;73079;52.914;-0.982;2024-02-21T04:19:26;100856.59;;;8.85;100.00
53550;BME280;73079;52.914;-0.982;2024-02-21T04:21:52;100865.63;;;8.84;100.00
53550;BME280;73079;52.914;-0.982;2024-02-21T04:24:20;100854.25;;;8.74;100.00
53550;BME280;73079;52.914;-0.982;2024-02-21T04:26:47;100847.56;;;8.78;100.00
53550;BME280;73079;52.914;-0.982;2024-02-21T04:29:13;100846.75;;;8.69;100.00
53550;BME280;73079;52.914;-0.982;2024-02-21T04:31:39;100839.19;;;8.65;100.00
53550;BME280;73079;52.914;-0.982;2024-02-21T04:34:06;100833.84;;;8.65;100.00
53550;BME280;73079;52.914;-0.982;2024-02-21T04:36:31;100826.66;;;8.65;100.00
53550;BME280;73079;52.914;-0.982;2024-02-21T04:38:58;100823.13;;;8.65;100.00
53550;BME280;73079;52.914;-0.982;2024-02-21T04:41:25;100825.47;;;8.60;100.00
53550;BME280;73079;52.914;-0.982;2024-02-21T04:43:54;100825.16;;;8.63;100.00
53550;BME280;73079;52.914;-0.982;2024-02-21T04:46:19;100817.28;;;8.61;100.00
53550;BME280;73079;52.914;-0.982;2024-02-21T04:48:45;100811.59;;;8.56;100.00
53550;BME280;73079;52.914;-0.982;2024-02-21T04:51:12;100802.38;;;8.50;100.00
53550;BME280;73079;52.914;-0.982;2024-02-21T04:53:39;100808.06;;;8.55;100.00
53550;BME280;73079;52.914;-0.982;2024-02-21T04:56:05;100806.09;;;8.49;100.00
53550;BME280;73079;52.914;-0.982;2024-02-21T04:58:32;100780.81;;;8.52;100.00
53550;BME280;73079;52.914;-0.982;2024-02-21T05:00:58;100777.28;;;8.51;100.00
53550;BME280;73079;52.914;-0.982;2024-02-21T05:03:24;100778.28;;;8.50;100.00
53550;BME280;73079;52.914;-0.982;2024-02-21T05:05:50;100761.22;;;8.43;100.00
53550;BME280;73079;52.914;-0.982;2024-02-21T05:08:16;100766.25;;;8.46;100.00
53550;BME280;73079;52.914;-0.982;2024-02-21T05:10:41;100759.88;;;8.31;100.00
53550;BME280;73079;52.914;-0.982;2024-02-21T05:13:07;100753.19;;;8.27;100.00
53550;BME280;73079;52.914;-0.982;2024-02-21T05:15:35;100733.13;;;8.23;100.00
53550;BME280;73079;52.914;-0.982;2024-02-21T05:18:01;100737.97;;;8.19;100.00
53550;BME280;73079;52.914;-0.982;2024-02-21T05:20:27;100722.06;;;8.09;100.00
53550;BME280;73079;52.914;-0.982;2024-02-21T05:22:53;100719.38;;;8.01;100.00
53550;BME280;73079;52.914;-0.982;2024-02-21T05:25:18;100712.72;;;7.97;100.00
53550;BME280;73079;52.914;-0.982;2024-02-21T05:27:44;100703.69;;;7.98;100.00
53550;BME280;73079;52.914;-0.982;2024-02-21T05:30:12;100690.47;;;7.96;100.00
53550;BME280;73079;52.914;-0.982;2024-02-21T05:32:39;100687.31;;;7.93;100.00
53550;BME280;73079;52.914;-0.982;2024-02-21T05:35:05;100685.28;;;7.95;100.00
53550;BME280;73079;52.914;-0.982;2024-02-21T05:37:31;100671.91;;;7.95;100.00
53550;BME280;73079;52.914;-0.982;2024-02-21T05:39:56;100674.59;;;7.95;100.00
53550;BME280;73079;52.914;-0.982;2024-02-21T05:42:22;100664.53;;;7.97;100.00
53550;BME280;73079;52.914;-0.982;2024-02-21T05:44:48;100652.53;;;7.93;100.00
53550;BME280;73079;52.914;-0.982;2024-02-21T05:47:14;100641.16;;;7.91;100.00
53550;BME280;73079;52.914;-0.982;2024-02-21T05:49:42;100637.81;;;7.89;100.00
53550;BME280;73079;52.914;-0.982;2024-02-21T05:52:07;100640.31;;;7.90;100.00
53550;BME280;73079;52.914;-0.982;2024-02-21T05:54:33;100620.59;;;7.91;100.00
53550;BME280;73079;52.914;-0.982;2024-02-21T05:56:59;100606.38;;;7.91;100.00
53550;BME280;73079;52.914;-0.982;2024-02-21T05:59:25;100608.41;;;7.89;100.00
53550;BME280;73079;52.914;-0.982;2024-02-21T06:01:55;100601.69;;;7.85;100.00
53550;BME280;73079;52.914;-0.982;2024-02-21T06:04:23;100592.50;;;7.87;100.00
53550;BME280;73079;52.914;-0.982;2024-02-21T06:06:50;100587.50;;;7.84;100.00
53550;BME280;73079;52.914;-0.982;2024-02-21T06:09:15;100580.28;;;7.85;100.00
53550;BME280;73079;52.914;-0.982;2024-02-21T06:11:41;100567.59;;;7.87;100.00
53550;BME280;73079;52.914;-0.982;2024-02-21T06:14:07;100564.25;;;7.85;100.00
53550;BME280;73079;52.914;-0.982;2024-02-21T06:16:33;100569.59;;;7.85;100.00
53550;BME280;73079;52.914;-0.982;2024-02-21T06:18:58;100563.41;;;7.84;100.00
53550;BME280;73079;52.914;-0.982;2024-02-21T06:21:28;100553.06;;;7.81;100.00
53550;BME280;73079;52.914;-0.982;2024-02-21T06:23:56;100542.50;;;7.79;100.00
53550;BME280;73079;52.914;-0.982;2024-02-21T06:26:21;100539.69;;;7.81;100.00
53550;BME280;73079;52.914;-0.982;2024-02-21T06:28:47;100530.00;;;7.80;100.00
53550;BME280;73079;52.914;-0.982;2024-02-21T06:31:13;100522.63;;;7.82;100.00
53550;BME280;73079;52.914;-0.982;2024-02-21T06:33:40;100512.44;;;7.86;100.00
53550;BME280;73079;52.914;-0.982;2024-02-21T06:36:06;100503.91;;;7.82;100.00
53550;BME280;73079;52.914;-0.982;2024-02-21T06:38:32;100496.91;;;7.73;100.00
53550;BME280;73079;52.914;-0.982;2024-02-21T06:41:00;100492.06;;;7.76;100.00
53550;BME280;73079;52.914;-0.982;2024-02-21T06:43:28;100486.41;;;7.71;100.00
53550;BME280;73079;52.914;-0.982;2024-02-21T06:45:54;100478.50;;;7.78;100.00
53550;BME280;73079;52.914;-0.982;2024-02-21T06:48:23;100459.97;;;7.76;100.00
53550;BME280;73079;52.914;-0.982;2024-02-21T06:50:48;100467.50;;;7.73;100.00
53550;BME280;73079;52.914;-0.982;2024-02-21T06:53:17;100462.44;;;7.78;100.00
53550;BME280;73079;52.914;-0.982;2024-02-21T06:55:43;100453.28;;;7.72;100.00
53550;BME280;73079;52.914;-0.982;2024-02-21T06:58:10;100435.59;;;7.71;100.00
53550;BME280;73079;52.914;-0.982;2024-02-21T07:00:38;100423.88;;;7.72;100.00
53550;BME280;73079;52.914;-0.982;2024-02-21T07:03:04;100425.53;;;7.73;100.00
53550;BME280;73079;52.914;-0.982;2024-02-21T07:05:30;100427.56;;;7.71;100.00
53550;BME280;73079;52.914;-0.982;2024-02-21T07:07:55;100417.53;;;7.73;100.00
53550;BME280;73079;52.914;-0.982;2024-02-21T07:10:21;100413.81;;;7.74;100.00
53550;BME280;73079;52.914;-0.982;2024-02-21T07:12:47;100410.97;;;7.76;100.00
53550;BME280;73079;52.914;-0.982;2024-02-21T07:15:15;100395.78;;;7.76;100.00
53550;BME280;73079;52.914;-0.982;2024-02-21T07:17:41;100385.44;;;7.73;100.00
53550;BME280;73079;52.914;-0.982;2024-02-21T07:20:08;100380.75;;;7.75;100.00
53550;BME280;73079;52.914;-0.982;2024-02-21T07:22:34;100379.03;;;7.83;100.00
53550;BME280;73079;52.914;-0.982;2024-02-21T07:25:00;100373.19;;;7.79;100.00
53550;BME280;73079;52.914;-0.982;2024-02-21T07:27:25;100358.63;;;7.81;100.00
53550;BME280;73079;52.914;-0.982;2024-02-21T07:29:53;100357.97;;;7.79;100.00
53550;BME280;73079;52.914;-0.982;2024-02-21T07:32:21;100350.13;;;7.78;100.00
53550;BME280;73079;52.914;-0.982;2024-02-21T07:34:46;100343.59;;;7.80;100.00
53550;BME280;73079;52.914;-0.982;2024-02-21T07:37:12;100328.56;;;7.79;100.00
53550;BME280;73079;52.914;-0.982;2024-02-21T07:39:38;100323.50;;;7.85;100.00
53550;BME280;73079;52.914;-0.982;2024-02-21T07:42:04;100309.81;;;7.88;100.00
53550;BME280;73079;52.914;-0.982;2024-02-21T07:44:31;100313.78;;;7.92;100.00
53550;BME280;73079;52.914;-0.982;2024-02-21T07:46:57;100305.75;;;7.92;100.00
53550;BME280;73079;52.914;-0.982;2024-02-21T07:49:26;100289.53;;;7.93;100.00
53550;BME280;73079;52.914;-0.982;2024-02-21T07:51:52;100282.31;;;7.94;100.00
53550;BME280;73079;52.914;-0.982;2024-02-21T07:54:18;100275.69;;;7.90;100.00
53550;BME280;73079;52.914;-0.982;2024-02-21T07:56:43;100266.97;;;7.96;100.00
53550;BME280;73079;52.914;-0.982;2024-02-21T07:59:09;100251.25;;;7.93;100.00
53550;BME280;73079;52.914;-0.982;2024-02-21T08:01:35;100244.34;;;7.98;100.00
53550;BME280;73079;52.914;-0.982;2024-02-21T08:04:01;100236.97;;;8.00;100.00
53550;BME280;73079;52.914;-0.982;2024-02-21T08:06:29;100224.41;;;8.01;100.00
53550;BME280;73079;52.914;-0.982;2024-02-21T08:08:55;100239.47;;;8.02;100.00
53550;BME280;73079;52.914;-0.982;2024-02-21T08:11:25;100224.72;;;8.06;100.00
53550;BME280;73079;52.914;-0.982;2024-02-21T08:13:51;100215.22;;;8.04;100.00
53550;BME280;73079;52.914;-0.982;2024-02-21T08:16:17;100203.31;;;8.06;100.00
53550;BME280;73079;52.914;-0.982;2024-02-21T08:18:43;100206.47;;;8.10;100.00
53550;BME280;73079;52.914;-0.982;2024-02-21T08:21:09;100213.31;;;8.12;100.00
53550;BME280;73079;52.914;-0.982;2024-02-21T08:23:36;100199.28;;;8.10;100.00
53550;BME280;73079;52.914;-0.982;2024-02-21T08:26:03;100204.09;;;8.15;100.00
53550;BME280;73079;52.914;-0.982;2024-02-21T08:28:29;100193.09;;;8.10;100.00
53550;BME280;73079;52.914;-0.982;2024-02-21T08:30:54;100190.22;;;8.11;100.00
53550;BME280;73079;52.914;-0.982;2024-02-21T08:33:20;100188.59;;;8.10;100.00
53550;BME280;73079;52.914;-0.982;2024-02-21T08:35:50;100177.03;;;8.10;100.00
53550;BME280;73079;52.914;-0.982;2024-02-21T08:38:16;100163.13;;;8.14;100.00
53550;BME280;73079;52.914;-0.982;2024-02-21T08:40:43;100149.09;;;8.12;100.00
53550;BME280;73079;52.914;-0.982;2024-02-21T08:43:09;100157.13;;;8.12;100.00
53550;BME280;73079;52.914;-0.982;2024-02-21T08:45:35;100124.84;;;8.14;100.00
53550;BME280;73079;52.914;-0.982;2024-02-21T08:48:01;100127.34;;;8.15;100.00
53550;BME280;73079;52.914;-0.982;2024-02-21T08:50:27;100114.59;;;8.17;100.00
53550;BME280;73079;52.914;-0.982;2024-02-21T08:52:53;100110.88;;;8.18;100.00
53550;BME280;73079;52.914;-0.982;2024-02-21T08:55:19;100101.84;;;8.19;100.00
53550;BME280;73079;52.914;-0.982;2024-02-21T08:57:46;100093.25;;;8.24;100.00
53550;BME280;73079;52.914;-0.982;2024-02-21T09:00:14;100087.91;;;8.24;100.00
53550;BME280;73079;52.914;-0.982;2024-02-21T09:02:40;100064.50;;;8.26;100.00
53550;BME280;73079;52.914;-0.982;2024-02-21T09:05:08;100070.03;;;8.25;100.00
53550;BME280;73079;52.914;-0.982;2024-02-21T09:07:34;100053.78;;;8.26;100.00
53550;BME280;73079;52.914;-0.982;2024-02-21T09:10:00;100053.84;;;8.33;100.00
53550;BME280;73079;52.914;-0.982;2024-02-21T09:12:26;100044.81;;;8.34;100.00
53550;BME280;73079;52.914;-0.982;2024-02-21T09:14:53;100034.56;;;8.37;100.00
53550;BME280;73079;52.914;-0.982;2024-02-21T09:17:19;100028.00;;;8.40;100.00
53550;BME280;73079;52.914;-0.982;2024-02-21T09:19:46;100019.78;;;8.42;100.00
53550;BME280;73079;52.914;-0.982;2024-02-21T09:22:12;100004.94;;;8.39;100.00
53550;BME280;73079;52.914;-0.982;2024-02-21T09:24:38;100007.44;;;8.41;100.00
53550;BME280;73079;52.914;-0.982;2024-02-21T09:27:04;99995.19;;;8.46;100.00
53550;BME280;73079;52.914;-0.982;2024-02-21T09:29:31;99981.50;;;8.41;100.00
53550;BME280;73079;52.914;-0.982;2024-02-21T09:32:00;99974.13;;;8.43;100.00
53550;BME280;73079;52.914;-0.982;2024-02-21T09:34:26;99968.03;;;8.49;100.00
53550;BME280;73079;52.914;-0.982;2024-02-21T09:36:53;99955.66;;;8.48;100.00
53550;BME280;73079;52.914;-0.982;2024-02-21T09:39:19;99958.97;;;8.50;100.00
53550;BME280;73079;52.914;-0.982;2024-02-21T09:41:49;99947.00;;;8.46;100.00
53550;BME280;73079;52.914;-0.982;2024-02-21T09:44:19;99918.00;;;8.50;100.00
53550;BME280;73079;52.914;-0.982;2024-02-21T09:46:52;99924.97;;;8.51;100.00
53550;BME280;73079;52.914;-0.982;2024-02-21T09:49:29;99922.56;;;8.56;100.00
53550;BME280;73079;52.914;-0.982;2024-02-21T09:51:57;99913.09;;;8.53;100.00
53550;BME280;73079;52.914;-0.982;2024-02-21T09:54:26;99906.72;;;8.54;100.00
53550;BME280;73079;52.914;-0.982;2024-02-21T09:56:53;99899.31;;;8.56;100.00
53550;BME280;73079;52.914;-0.982;2024-02-21T09:59:19;99882.22;;;8.57;100.00
53550;BME280;73079;52.914;-0.982;2024-02-21T10:01:45;99875.22;;;8.56;100.00
53550;BME280;73079;52.914;-0.982;2024-02-21T10:04:12;99862.91;;;8.62;100.00
53550;BME280;73079;52.914;-0.982;2024-02-21T10:06:40;99840.91;;;8.67;100.00
53550;BME280;73079;52.914;-0.982;2024-02-21T10:09:06;99833.66;;;8.61;100.00
53550;BME280;73079;52.914;-0.982;2024-02-21T10:11:32;99834.28;;;8.63;100.00
53550;BME280;73079;52.914;-0.982;2024-02-21T10:14:03;99821.94;;;8.62;100.00
53550;BME280;73079;52.914;-0.982;2024-02-21T10:16:30;99813.94;;;8.68;100.00
53550;BME280;73079;52.914;-0.982;2024-02-21T10:18:56;99786.91;;;8.63;100.00
53550;BME280;73079;52.914;-0.982;2024-02-21T10:21:25;99773.94;;;8.67;100.00
53550;BME280;73079;52.914;-0.982;2024-02-21T10:23:52;99753.19;;;8.69;100.00
53550;BME280;73079;52.914;-0.982;2024-02-21T10:26:19;99749.47;;;8.70;100.00
53550;BME280;73079;52.914;-0.982;2024-02-21T10:28:46;99737.75;;;8.71;100.00
53550;BME280;73079;52.914;-0.982;2024-02-21T10:31:21;99722.69;;;8.70;100.00
53550;BME280;73079;52.914;-0.982;2024-02-21T10:33:55;99730.97;;;8.75;100.00
53550;BME280;73079;52.914;-0.982;2024-02-21T10:36:21;99725.41;;;8.77;100.00
53550;BME280;73079;52.914;-0.982;2024-02-21T10:38:47;99714.50;;;8.78;100.00
53550;BME280;73079;52.914;-0.982;2024-02-21T10:41:14;99706.72;;;8.83;100.00
53550;BME280;73079;52.914;-0.982;2024-02-21T10:43:43;99703.59;;;8.80;100.00
53550;BME280;73079;52.914;-0.982;2024-02-21T10:46:14;99696.19;;;8.82;100.00
53550;BME280;73079;52.914;-0.982;2024-02-21T10:48:45;99688.97;;;8.82;100.00
53550;BME280;73079;52.914;-0.982;2024-02-21T10:51:15;99693.13;;;8.85;100.00
53550;BME280;73079;52.914;-0.982;2024-02-21T10:53:47;99678.09;;;8.90;100.00
53550;BME280;73079;52.914;-0.982;2024-02-21T10:56:22;99677.50;;;8.88;100.00
53550;BME280;73079;52.914;-0.982;2024-02-21T10:58:51;99682.41;;;8.91;100.00
53550;BME280;73079;52.914;-0.982;2024-02-21T11:01:18;99663.91;;;8.97;100.00
53550;BME280;73079;52.914;-0.982;2024-02-21T11:03:46;99664.72;;;8.97;100.00
53550;BME280;73079;52.914;-0.982;2024-02-21T11:06:13;99649.09;;;9.01;100.00
53550;BME280;73079;52.914;-0.982;2024-02-21T11:08:40;99642.09;;;9.00;100.00
53550;BME280;73079;52.914;-0.982;2024-02-21T11:11:06;99648.69;;;9.04;100.00
53550;BME280;73079;52.914;-0.982;2024-02-21T11:13:35;99635.91;;;9.06;100.00
53550;BME280;73079;52.914;-0.982;2024-02-21T11:16:08;99628.09;;;9.04;100.00
53550;BME280;73079;52.914;-0.982;2024-02-21T11:18:35;99619.81;;;9.06;100.00
53550;BME280;73079;52.914;-0.982;2024-02-21T11:21:01;99614.50;;;9.12;100.00
53550;BME280;73079;52.914;-0.982;2024-02-21T11:23:27;99609.53;;;9.09;100.00
53550;BME280;73079;52.914;-0.982;2024-02-21T11:26:04;99591.19;;;9.13;100.00
53550;BME280;73079;52.914;-0.982;2024-02-21T11:28:30;99594.31;;;9.10;100.00
53550;BME280;73079;52.914;-0.982;2024-02-21T11:31:06;99582.75;;;9.16;100.00
53550;BME280;73079;52.914;-0.982;2024-02-21T11:33:33;99557.63;;;9.17;100.00
53550;BME280;73079;52.914;-0.982;2024-02-21T11:35:58;99546.28;;;9.22;100.00
53550;BME280;73079;52.914;-0.982;2024-02-21T11:38:24;99540.53;;;9.25;100.00
53550;BME280;73079;52.914;-0.982;2024-02-21T11:40:51;99551.66;;;9.28;100.00
53550;BME280;73079;52.914;-0.982;2024-02-21T11:43:17;99547.97;;;9.29;100.00
53550;BME280;73079;52.914;-0.982;2024-02-21T11:45:42;99531.03;;;9.29;100.00
53550;BME280;73079;52.914;-0.982;2024-02-21T11:48:10;99537.03;;;9.31;100.00
53550;BME280;73079;52.914;-0.982;2024-02-21T11:50:36;99539.31;;;9.27;100.00
53550;BME280;73079;52.914;-0.982;2024-02-21T11:53:02;99523.84;;;9.29;100.00
53550;BME280;73079;52.914;-0.982;2024-02-21T11:55:29;99523.00;;;9.36;100.00
53550;BME280;73079;52.914;-0.982;2024-02-21T11:57:54;99506.53;;;9.45;100.00
53550;BME280;73079;52.914;-0.982;2024-02-21T12:00:21;99516.00;;;9.48;100.00
53550;BME280;73079;52.914;-0.982;2024-02-21T12:02:47;99506.09;;;9.55;100.00
53550;BME280;73079;52.914;-0.982;2024-02-21T12:05:15;99496.59;;;9.59;100.00
53550;BME280;73079;52.914;-0.982;2024-02-21T12:07:41;99478.66;;;9.60;100.00
53550;BME280;73079;52.914;-0.982;2024-02-21T12:10:08;99469.38;;;9.62;100.00
53550;BME280;73079;52.914;-0.982;2024-02-21T12:12:35;99461.31;;;9.62;100.00
53550;BME280;73079;52.914;-0.982;2024-02-21T12:15:03;99463.38;;;9.60;100.00
53550;BME280;73079;52.914;-0.982;2024-02-21T12:17:30;99448.72;;;9.63;100.00
53550;BME280;73079;52.914;-0.982;2024-02-21T12:19:56;99449.13;;;9.73;100.00
53550;BME280;73079;52.914;-0.982;2024-02-21T12:22:25;99437.16;;;9.76;100.00
53550;BME280;73079;52.914;-0.982;2024-02-21T12:24:51;99429.34;;;9.67;100.00
53550;BME280;73079;52.914;-0.982;2024-02-21T12:27:16;99431.59;;;9.70;100.00
53550;BME280;73079;52.914;-0.982;2024-02-21T12:29:42;99412.03;;;9.70;100.00
53550;BME280;73079;52.914;-0.982;2024-02-21T12:32:08;99405.63;;;9.64;100.00
53550;BME280;73079;52.914;-0.982;2024-02-21T12:34:34;99406.06;;;9.61;100.00
53550;BME280;73079;52.914;-0.982;2024-02-21T12:37:02;99395.94;;;9.57;100.00
53550;BME280;73079;52.914;-0.982;2024-02-21T12:39:30;99378.19;;;9.62;100.00